Time;durP1;ratioP1;P1;durP2;ratioP2;P2;SDS_P1;SDS_P2;PMS_P1;PMS_P2;Temp;Humidity;BMP_temperature;BMP_pressure;BME280_temperature;BME280_humidity;BME280_pressure;Samples;Min_cycle;Max_cycle;Signal;HPM_P1;HPM_P2
2022/10/25 00:03:29;;;;;;;;;;;;;;;12.53;88.05176;101065;;;;-76
2022/10/25 00:08:29;;;;;;;;;;;;;;;12.63;88.68359;101063.3;;;;-76
2022/10/25 00:13:29;;;;;;;;;;;;;;;12.63;87.91699;101064;;;;-75
2022/10/25 00:18:21;;;;;;;7.7;1.7;;;;;;;;;;;;;-76
2022/10/25 00:18:31;;;;;;;;;;;;;;;12.59;88.05371;101063.6;;;;-73
2022/10/25 00:23:29;;;;;;;;;;;;;;;12.6;88.63184;101067.3;;;;-75
2022/10/25 00:28:29;;;;;;;;;;;;;;;12.63;88.58203;101075.9;;;;-77
2022/10/25 00:33:31;;;;;;;;;;;;;;;12.68;88.66895;101087.9;;;;-77
2022/10/25 00:38:29;;;;;;;;;;;;;;;12.71;89.2666;101093.4;;;;-75
2022/10/25 00:43:40;;;;;;;;;;;;;;;12.73;88.74707;101092.9;;;;-75
2022/10/25 00:48:22;;;;;;;7.9;2;;;;;;;;;;;;;-76
2022/10/25 00:48:31;;;;;;;;;;;;;;;12.74;88.6709;101092.8;;;;-76
2022/10/25 00:53:31;;;;;;;;;;;;;;;12.8;88.9834;101100.8;;;;-75
2022/10/25 00:58:31;;;;;;;;;;;;;;;12.81;88.54102;101111.5;;;;-76
2022/10/25 01:03:29;;;;;;;;;;;;;;;12.82;89.09766;101112.4;;;;-77
2022/10/25 01:08:29;;;;;;;;;;;;;;;12.8;88.76172;101110.7;;;;-76
2022/10/25 01:13:29;;;;;;;;;;;;;;;12.81;88.99609;101112.9;;;;-75
2022/10/25 01:18:25;;;;;;;7.7;2.3;;;;;;;;;;;;;-74
2022/10/25 01:18:36;;;;;;;;;;;;;;;12.82;89.1084;101123.5;;;;-73
2022/10/25 01:23:42;;;;;;;;;;;;;;;12.84;88.97949;101124.5;;;;-75
2022/10/25 01:28:36;;;;;;;;;;;;;;;12.87;89.00684;101126.5;;;;-76
2022/10/25 01:33:31;;;;;;;;;;;;;;;12.86;88.97168;101123.8;;;;-76
2022/10/25 01:38:36;;;;;;;;;;;;;;;12.86;88.80762;101125.1;;;;-75
2022/10/25 01:43:32;;;;;;;;;;;;;;;12.85;88.72656;101127.6;;;;-74
2022/10/25 01:48:25;;;;;;;12.9;2.3;;;;;;;;;;;;;-75
2022/10/25 01:48:39;;;;;;;;;;;;;;;12.86;89.11621;101133.2;;;;-74
2022/10/25 01:53:29;;;;;;;;;;;;;;;12.84;88.69336;101132;;;;-75
2022/10/25 01:58:37;;;;;;;;;;;;;;;12.84;89.20117;101134.1;;;;-76
2022/10/25 02:03:33;;;;;;;;;;;;;;;12.82;89.26465;101138.1;;;;-76
2022/10/25 02:08:37;;;;;;;;;;;;;;;12.81;88.98535;101134.5;;;;-76
2022/10/25 02:13:30;;;;;;;;;;;;;;;12.78;88.61133;101138.9;;;;-75
2022/10/25 02:18:27;;;;;;;8.6;2.2;;;;;;;;;;;;;-75
2022/10/25 02:18:38;;;;;;;;;;;;;;;12.75;89.0166;101141.5;;;;-74
2022/10/25 02:23:31;;;;;;;;;;;;;;;12.71;89.09766;101145.8;;;;-74
2022/10/25 02:28:30;;;;;;;;;;;;;;;12.69;88.75;101142.8;;;;-75
2022/10/25 02:33:29;;;;;;;;;;;;;;;12.65;88.58789;101148.6;;;;-74
2022/10/25 02:38:29;;;;;;;;;;;;;;;12.64;88.58398;101151.8;;;;-76
2022/10/25 02:43:29;;;;;;;;;;;;;;;12.62;88.46973;101153.3;;;;-75
2022/10/25 02:48:25;;;;;;;13.9;2;;;;;;;;;;;;;-75
2022/10/25 02:48:35;;;;;;;;;;;;;;;12.61;88.20117;101154.5;;;;-75
2022/10/25 02:53:29;;;;;;;;;;;;;;;12.62;88.61523;101155.1;;;;-75
2022/10/25 02:58:29;;;;;;;;;;;;;;;12.59;88.82813;101157.5;;;;-74
2022/10/25 03:03:29;;;;;;;;;;;;;;;12.53;88.88379;101164.2;;;;-74
2022/10/25 03:08:29;;;;;;;;;;;;;;;12.5;88.80078;101173.4;;;;-74
2022/10/25 03:13:29;;;;;;;;;;;;;;;12.45;88.92285;101177.1;;;;-75
2022/10/25 03:18:26;;;;;;;8.4;1.6;;;;;;;;;;;;;-74
2022/10/25 03:18:35;;;;;;;;;;;;;;;12.43;88.76367;101183.5;;;;-73
2022/10/25 03:23:29;;;;;;;;;;;;;;;12.41;88.87109;101186.3;;;;-75
2022/10/25 03:28:30;;;;;;;;;;;;;;;12.39;88.68945;101192.8;;;;-75
2022/10/25 03:33:29;;;;;;;;;;;;;;;12.38;89.11816;101191.6;;;;-74
2022/10/25 03:38:29;;;;;;;;;;;;;;;12.37;88.96289;101198.8;;;;-74
2022/10/25 03:43:31;;;;;;;;;;;;;;;12.36;88.89453;101211;;;;-74
2022/10/25 03:48:27;;;;;;;7;1.5;;;;;;;;;;;;;-74
2022/10/25 03:48:37;;;;;;;;;;;;;;;12.35;88.58301;101218.7;;;;-74
2022/10/25 03:53:29;;;;;;;;;;;;;;;12.34;88.81348;101227;;;;-74
2022/10/25 03:58:29;;;;;;;;;;;;;;;12.32;89.18652;101228.1;;;;-74
2022/10/25 04:03:29;;;;;;;;;;;;;;;12.27;88.94336;101223.2;;;;-75
2022/10/25 04:08:29;;;;;;;;;;;;;;;12.23;88.44629;101229.9;;;;-75
2022/10/25 04:13:29;;;;;;;;;;;;;;;12.18;88.56836;101241.2;;;;-75
2022/10/25 04:18:28;;;;;;;5.9;1.5;;;;;;;;;;;;;-75
2022/10/25 04:18:38;;;;;;;;;;;;;;;12.16;88.28809;101245.8;;;;-76
2022/10/25 04:23:30;;;;;;;;;;;;;;;12.12;88.82324;101248.9;;;;-75
2022/10/25 04:28:29;;;;;;;;;;;;;;;12.09;88.51855;101257.4;;;;-74
2022/10/25 04:33:29;;;;;;;;;;;;;;;12.08;88.54785;101259;;;;-75
2022/10/25 04:38:29;;;;;;;;;;;;;;;12.03;88.39453;101261.4;;;;-76
2022/10/25 04:43:30;;;;;;;;;;;;;;;11.98;88.42871;101264;;;;-75
2022/10/25 04:48:29;;;;;;;8;1.6;;;;;;;;;;;;;-75
2022/10/25 04:48:39;;;;;;;;;;;;;;;11.95;88.75488;101265.7;;;;-75
2022/10/25 04:53:29;;;;;;;;;;;;;;;11.9;88.58008;101270.9;;;;-75
2022/10/25 04:58:29;;;;;;;;;;;;;;;11.87;88.93945;101273.1;;;;-74
2022/10/25 05:03:29;;;;;;;;;;;;;;;11.84;89.13281;101271.8;;;;-74
2022/10/25 05:08:29;;;;;;;;;;;;;;;11.83;88.77734;101283.9;;;;-77
2022/10/25 05:13:29;;;;;;;;;;;;;;;11.82;88.60742;101288.5;;;;-76
2022/10/25 05:18:29;;;;;;;;;;;;;;;11.79;88.55762;101294.2;;;;-75
2022/10/25 05:18:38;;;;;;;4.6;1.2;;;;;;;;;;;;;-75
2022/10/25 05:23:30;;;;;;;;;;;;;;;11.75;88.94922;101301.2;;;;-76
2022/10/25 05:28:29;;;;;;;;;;;;;;;11.7;88.43945;101304.8;;;;-76
2022/10/25 05:33:29;;;;;;;;;;;;;;;11.68;88.51367;101306.6;;;;-75
2022/10/25 05:38:30;;;;;;;;;;;;;;;11.66;88.42188;101317.6;;;;-75
2022/10/25 05:43:30;;;;;;;;;;;;;;;11.66;88.43066;101313.8;;;;-74
2022/10/25 05:48:29;;;;;;;;;;;;;;;11.67;88.8877;101320.4;;;;-74
2022/10/25 05:48:39;;;;;;;8.1;1.3;;;;;;;;;;;;;-74
2022/10/25 05:53:29;;;;;;;;;;;;;;;11.65;89.02832;101318.9;;;;-74
2022/10/25 05:58:29;;;;;;;;;;;;;;;11.68;88.7793;101333.4;;;;-74
2022/10/25 06:03:29;;;;;;;;;;;;;;;11.68;88.74609;101333.6;;;;-74
2022/10/25 06:08:29;;;;;;;;;;;;;;;11.7;88.58398;101330.7;;;;-74
2022/10/25 06:13:29;;;;;;;;;;;;;;;11.69;88.4248;101335;;;;-75
2022/10/25 06:18:29;;;;;;;;;;;;;;;11.66;89.39551;101340.7;;;;-75
2022/10/25 06:18:39;;;;;;;8.5;1.7;;;;;;;;;;;;;-75
2022/10/25 06:23:30;;;;;;;;;;;;;;;11.65;89.50391;101348.2;;;;-75
2022/10/25 06:28:29;;;;;;;;;;;;;;;11.6;89.36035;101350.7;;;;-75
2022/10/25 06:33:29;;;;;;;;;;;;;;;11.6;89.49316;101358.8;;;;-74
2022/10/25 06:38:29;;;;;;;;;;;;;;;11.59;88.91602;101366.1;;;;-74
2022/10/25 06:43:29;;;;;;;;;;;;;;;11.62;88.91211;101369.8;;;;-75
2022/10/25 06:48:29;;;;;;;;;;;;;;;11.6;89.86816;101371.4;;;;-75
2022/10/25 06:48:40;;;;;;;8;2;;;;;;;;;;;;;-75
2022/10/25 06:53:29;;;;;;;;;;;;;;;11.62;89.49609;101372.1;;;;-74
2022/10/25 06:58:29;;;;;;;;;;;;;;;11.63;89.52051;101381.1;;;;-74
2022/10/25 07:03:33;;;;;;;;;;;;;;;11.66;89.81348;101389.5;;;;-75
2022/10/25 07:08:29;;;;;;;;;;;;;;;11.68;89.44336;101400.8;;;;-75
2022/10/25 07:13:29;;;;;;;;;;;;;;;11.7;89.31348;101409.7;;;;-74
2022/10/25 07:18:29;;;;;;;;;;;;;;;11.71;89.4043;101416.9;;;;-75
2022/10/25 07:18:39;;;;;;;8.2;2.2;;;;;;;;;;;;;-75
2022/10/25 07:23:29;;;;;;;;;;;;;;;11.78;89.00977;101416.3;;;;-74
2022/10/25 07:28:29;;;;;;;;;;;;;;;11.92;89.03906;101418.4;;;;-74
2022/10/25 07:33:29;;;;;;;;;;;;;;;12.06;88.93359;101426.8;;;;-75
2022/10/25 07:38:29;;;;;;;;;;;;;;;12.11;89.46387;101427.1;;;;-75
2022/10/25 07:43:29;;;;;;;;;;;;;;;12.18;88.88965;101431.3;;;;-75
2022/10/25 07:48:29;;;;;;;;;;;;;;;12.23;89.77539;101435.7;;;;-75
2022/10/25 07:48:40;;;;;;;12.1;3.4;;;;;;;;;;;;;-75
2022/10/25 07:53:29;;;;;;;;;;;;;;;12.34;91.16016;101438;;;;-74
2022/10/25 07:58:31;;;;;;;;;;;;;;;12.53;92.16406;101436.7;;;;-75
2022/10/25 08:03:30;;;;;;;;;;;;;;;12.7;91.35742;101442.3;;;;-74
2022/10/25 08:08:29;;;;;;;;;;;;;;;12.8;91.33398;101446.6;;;;-76
2022/10/25 08:13:29;;;;;;;;;;;;;;;12.9;91.47656;101460;;;;-74
2022/10/25 08:18:29;;;;;;;;;;;;;;;13.2;92.87012;101466.8;;;;-75
2022/10/25 08:18:38;;;;;;;16;4.2;;;;;;;;;;;;;-75
2022/10/25 08:23:30;;;;;;;;;;;;;;;13.55;92.83203;101468;;;;-74
2022/10/25 08:28:29;;;;;;;;;;;;;;;13.88;92.0127;101466;;;;-74
2022/10/25 08:33:29;;;;;;;;;;;;;;;14.13;90.44043;101467.8;;;;-74
2022/10/25 08:38:29;;;;;;;;;;;;;;;14.07;89.97266;101479.4;;;;-74
2022/10/25 08:43:36;;;;;;;;;;;;;;;14.05;89.96875;101480.6;;;;-74
2022/10/25 08:48:31;;;;;;;;;;;;;;;14.05;90.03809;101486;;;;-75
2022/10/25 08:48:44;;;;;;;14;4.6;;;;;;;;;;;;;-75
2022/10/25 08:53:31;;;;;;;;;;;;;;;14.08;90.05469;101490.9;;;;-79
2022/10/25 08:58:34;;;;;;;;;;;;;;;14.12;90.05078;101493;;;;-79
2022/10/25 09:03:30;;;;;;;;;;;;;;;14.17;90.47168;101497.7;;;;-75
2022/10/25 09:08:39;;;;;;;;;;;;;;;14.37;90.3252;101507.6;;;;-75
2022/10/25 09:13:36;;;;;;;;;;;;;;;14.58;89.08789;101507.3;;;;-74
2022/10/25 09:18:34;;;;;;;;;;;;;;;14.58;88.24121;101513.3;;;;-75
2022/10/25 09:18:47;;;;;;;12.9;3.1;;;;;;;;;;;;;-75
2022/10/25 09:23:35;;;;;;;;;;;;;;;14.51;88.81641;101511.4;;;;-74
2022/10/25 09:28:34;;;;;;;;;;;;;;;14.43;88.30078;101518;;;;-76
2022/10/25 09:33:31;;;;;;;;;;;;;;;14.34;88.34766;101515.9;;;;-73
2022/10/25 09:38:32;;;;;;;;;;;;;;;14.31;88.35156;101519.1;;;;-75
2022/10/25 09:43:32;;;;;;;;;;;;;;;14.28;88.44824;101518.2;;;;-74
2022/10/25 09:48:32;;;;;;;;;;;;;;;14.31;89.52051;101524.8;;;;-75
2022/10/25 09:48:45;;;;;;;8;3.1;;;;;;;;;;;;;-75
2022/10/25 09:53:29;;;;;;;;;;;;;;;14.51;89.27344;101528.3;;;;-74
2022/10/25 09:58:30;;;;;;;;;;;;;;;14.67;88.8584;101535.4;;;;-75
2022/10/25 10:03:30;;;;;;;;;;;;;;;14.74;88.04883;101534.4;;;;-74
2022/10/25 10:08:30;;;;;;;;;;;;;;;14.85;88.26953;101540.2;;;;-75
2022/10/25 10:13:32;;;;;;;;;;;;;;;14.98;87.60742;101541.3;;;;-74
2022/10/25 10:18:33;;;;;;;;;;;;;;;15.03;86.67773;101556.1;;;;-74
2022/10/25 10:18:43;;;;;;;14.6;3.6;;;;;;;;;;;;;-74
2022/10/25 10:23:29;;;;;;;;;;;;;;;14.95;86.49609;101559.8;;;;-74
2022/10/25 10:28:29;;;;;;;;;;;;;;;14.86;87.02637;101568.4;;;;-74
2022/10/25 10:33:33;;;;;;;;;;;;;;;14.77;87.21973;101576.7;;;;-74
2022/10/25 10:38:32;;;;;;;;;;;;;;;14.93;87.5625;101572;;;;-75
2022/10/25 10:43:31;;;;;;;;;;;;;;;15.19;86.96777;101569;;;;-74
2022/10/25 10:48:29;;;;;;;;;;;;;;;15.48;86.16504;101574.7;;;;-74
2022/10/25 10:48:44;;;;;;;12.1;4.3;;;;;;;;;;;;;-74
2022/10/25 10:53:32;;;;;;;;;;;;;;;15.66;85.19434;101581.3;;;;-74
2022/10/25 10:58:30;;;;;;;;;;;;;;;15.75;83.94629;101586.6;;;;-74
2022/10/25 11:03:48;;;;;;;;;;;;;;;15.7;84.12598;101594;;;;-75
2022/10/25 11:08:29;;;;;;;;;;;;;;;15.72;84.06445;101590.5;;;;-74
2022/10/25 11:13:29;;;;;;;;;;;;;;;15.79;84.25586;101585.9;;;;-74
2022/10/25 11:18:34;;;;;;;;;;;;;;;15.9;83.875;101593.1;;;;-75
2022/10/25 11:18:52;;;;;;;12.4;5;;;;;;;;;;;;;-72
2022/10/25 11:23:35;;;;;;;;;;;;;;;15.94;83.46777;101599.4;;;;-75
2022/10/25 11:28:38;;;;;;;;;;;;;;;15.9;83.02246;101600.7;;;;-74
2022/10/25 11:33:30;;;;;;;;;;;;;;;15.94;82.89746;101605.8;;;;-73
2022/10/25 11:38:35;;;;;;;;;;;;;;;15.95;82.65137;101594.9;;;;-71
2022/10/25 11:43:36;;;;;;;;;;;;;;;15.89;82.46191;101594.1;;;;-73
2022/10/25 11:48:38;;;;;;;;;;;;;;;15.88;83.30078;101591.1;;;;-71
2022/10/25 11:48:54;;;;;;;9.3;4.9;;;;;;;;;;;;;-71
2022/10/25 11:53:37;;;;;;;;;;;;;;;15.94;83.92676;101592.4;;;;-71
2022/10/25 11:58:38;;;;;;;;;;;;;;;16.07;83.62598;101596.2;;;;-69
2022/10/25 12:03:39;;;;;;;;;;;;;;;16.19;82.87598;101593.9;;;;-69
2022/10/25 12:08:37;;;;;;;;;;;;;;;16.31;82.73145;101601.4;;;;-71
2022/10/25 12:13:32;;;;;;;;;;;;;;;16.32;81.98145;101597.7;;;;-70
2022/10/25 12:18:32;;;;;;;;;;;;;;;16.37;81.89941;101598.7;;;;-70
2022/10/25 12:18:49;;;;;;;9.4;4.1;;;;;;;;;;;;;-70
2022/10/25 12:23:31;;;;;;;;;;;;;;;16.34;81.20117;101594.7;;;;-70
2022/10/25 12:28:31;;;;;;;;;;;;;;;16.24;81.04688;101596.2;;;;-70
2022/10/25 12:33:34;;;;;;;;;;;;;;;16.18;81.34082;101601.4;;;;-70
2022/10/25 12:38:32;;;;;;;;;;;;;;;16.07;81.44434;101604.2;;;;-70
2022/10/25 12:43:34;;;;;;;;;;;;;;;16.01;81.42188;101598.9;;;;-70
2022/10/25 12:48:43;;;;;;;;;;;;;;;16.01;81.78906;101597.7;;;;-70
2022/10/25 12:49:06;;;;;;;10.6;3.5;;;;;;;;;;;;;-70
2022/10/25 12:53:43;;;;;;;;;;;;;;;16.02;82.01465;101595.8;;;;-70
2022/10/25 12:58:37;;;;;;;;;;;;;;;16.08;81.72559;101592.4;;;;-69
2022/10/25 13:03:49;;;;;;;;;;;;;;;16.14;81.32129;101596.9;;;;-70
2022/10/25 13:08:32;;;;;;;;;;;;;;;16.11;80.91309;101599.7;;;;-69
2022/10/25 13:13:32;;;;;;;;;;;;;;;16.12;80.71191;101602.1;;;;-70
2022/10/25 13:18:41;;;;;;;;;;;;;;;16.12;80.61035;101592.5;;;;-72
2022/10/25 13:19:02;;;;;;;10.7;2.7;;;;;;;;;;;;;-71
2022/10/25 13:23:40;;;;;;;;;;;;;;;16.14;80.64941;101592.4;;;;-69
2022/10/25 13:28:34;;;;;;;;;;;;;;;16.15;80.80762;101599.4;;;;-71
2022/10/25 13:33:36;;;;;;;;;;;;;;;16.21;80.86426;101603.6;;;;-71
2022/10/25 13:38:30;;;;;;;;;;;;;;;16.39;80.44727;101608.2;;;;-71
2022/10/25 13:43:29;;;;;;;;;;;;;;;16.49;79.69141;101599.7;;;;-70
2022/10/25 13:48:33;;;;;;;;;;;;;;;16.49;79.17578;101605.9;;;;-72
2022/10/25 13:48:53;;;;;;;6.6;2.1;;;;;;;;;;;;;-71
2022/10/25 13:53:36;;;;;;;;;;;;;;;16.47;79.50879;101610.5;;;;-70
2022/10/25 13:58:43;;;;;;;;;;;;;;;16.42;79.63477;101610.3;;;;-71
2022/10/25 14:03:35;;;;;;;;;;;;;;;16.38;79.4043;101611.2;;;;-71
2022/10/25 14:08:32;;;;;;;;;;;;;;;16.33;79.4502;101605.9;;;;-70
2022/10/25 14:13:33;;;;;;;;;;;;;;;16.28;79.35254;101605.7;;;;-69
2022/10/25 14:18:31;;;;;;;;;;;;;;;16.29;79.41992;101599.3;;;;-69
2022/10/25 14:18:56;;;;;;;7.4;2.3;;;;;;;;;;;;;-69
2022/10/25 14:23:32;;;;;;;;;;;;;;;16.33;79.69531;101598.3;;;;-71
2022/10/25 14:28:30;;;;;;;;;;;;;;;16.3;79.95996;101597;;;;-69
2022/10/25 14:33:34;;;;;;;;;;;;;;;16.28;79.82422;101590.7;;;;-71
2022/10/25 14:38:30;;;;;;;;;;;;;;;16.25;80.0752;101587.6;;;;-70
2022/10/25 14:43:36;;;;;;;;;;;;;;;16.22;80.09082;101592.8;;;;-72
2022/10/25 14:48:29;;;;;;;;;;;;;;;16.2;80.08789;101595;;;;-69
2022/10/25 14:49:00;;;;;;;7.1;2;;;;;;;;;;;;;-70
2022/10/25 14:53:29;;;;;;;;;;;;;;;16.17;80.10547;101587.1;;;;-70
2022/10/25 14:58:30;;;;;;;;;;;;;;;16.16;79.96875;101584.6;;;;-72
2022/10/25 15:03:30;;;;;;;;;;;;;;;16.15;80.74023;101586.9;;;;-70
2022/10/25 15:08:32;;;;;;;;;;;;;;;16.1;79.94824;101585.2;;;;-72
2022/10/25 15:13:30;;;;;;;;;;;;;;;16.09;79.97852;101582.6;;;;-71
2022/10/25 15:18:39;;;;;;;;;;;;;;;16.04;80.22754;101583.8;;;;-75
2022/10/25 15:19:10;;;;;;;5.6;1.5;;;;;;;;;;;;;-74
2022/10/25 15:23:29;;;;;;;;;;;;;;;15.98;80.88867;101587.8;;;;-74
2022/10/25 15:28:29;;;;;;;;;;;;;;;15.87;81.33887;101585.2;;;;-74
2022/10/25 15:33:30;;;;;;;;;;;;;;;15.77;81.66699;101582.7;;;;-75
2022/10/25 15:38:30;;;;;;;;;;;;;;;15.69;81.93359;101585.7;;;;-75
2022/10/25 15:43:29;;;;;;;;;;;;;;;15.62;82.17578;101585.8;;;;-75
2022/10/25 15:53:29;;;;;;;;;;;;;;;15.44;82.35645;101574.2;;;;-75
2022/10/25 15:58:30;;;;;;;;;;;;;;;15.35;82.48438;101570;;;;-75
2022/10/25 16:03:29;;;;;;;;;;;;;;;15.26;82.5791;101577.7;;;;-75
2022/10/25 16:08:29;;;;;;;;;;;;;;;15.15;82.73926;101573.4;;;;-75
2022/10/25 16:13:31;;;;;;;;;;;;;;;15.06;82.35352;101571.6;;;;-75
2022/10/25 16:18:29;;;;;;;;;;;;;;;14.96;82.33398;101564.3;;;;-75
2022/10/25 16:19:03;;;;;;;5.2;1.6;;;;;;;;;;;;;-74
2022/10/25 16:23:30;;;;;;;;;;;;;;;14.84;82.41211;101573;;;;-75
2022/10/25 16:28:29;;;;;;;;;;;;;;;14.71;82.72168;101571.3;;;;-74
2022/10/25 16:33:29;;;;;;;;;;;;;;;14.58;82.94434;101574;;;;-74
2022/10/25 16:38:29;;;;;;;;;;;;;;;14.46;83.17871;101579.8;;;;-74
2022/10/25 16:43:29;;;;;;;;;;;;;;;14.35;83.32422;101583.9;;;;-75
2022/10/25 16:48:29;;;;;;;;;;;;;;;14.25;83.40527;101587.1;;;;-70
2022/10/25 16:49:05;;;;;;;5.8;1.6;;;;;;;;;;;;;-71
2022/10/25 16:53:32;;;;;;;;;;;;;;;14.16;83.61133;101592.6;;;;-72
2022/10/25 16:58:33;;;;;;;;;;;;;;;14.06;83.67188;101594;;;;-70
2022/10/25 17:03:29;;;;;;;;;;;;;;;13.98;83.66797;101598.2;;;;-71
2022/10/25 17:08:31;;;;;;;;;;;;;;;13.91;83.75391;101591.5;;;;-72
2022/10/25 17:13:29;;;;;;;;;;;;;;;13.85;83.78613;101588.2;;;;-73
2022/10/25 17:18:29;;;;;;;;;;;;;;;13.79;83.67383;101583.6;;;;-74
2022/10/25 17:19:07;;;;;;;6.4;2.2;;;;;;;;;;;;;-74
2022/10/25 17:23:29;;;;;;;;;;;;;;;13.72;83.7627;101584.3;;;;-74
2022/10/25 17:28:29;;;;;;;;;;;;;;;13.64;83.21191;101590.7;;;;-76
2022/10/25 17:33:30;;;;;;;;;;;;;;;13.51;82.86426;101583.9;;;;-75
2022/10/25 17:38:29;;;;;;;;;;;;;;;13.45;83.1875;101582.8;;;;-74
2022/10/25 17:43:29;;;;;;;;;;;;;;;13.39;82.77539;101583.8;;;;-74
2022/10/25 17:48:29;;;;;;;;;;;;;;;13.29;83.00293;101582.9;;;;-74
2022/10/25 17:49:09;;;;;;;7.2;2.4;;;;;;;;;;;;;-74
2022/10/25 17:53:29;;;;;;;;;;;;;;;13.2;83.85254;101584.6;;;;-74
2022/10/25 17:58:29;;;;;;;;;;;;;;;13.09;83.90039;101581.8;;;;-75
2022/10/25 18:03:30;;;;;;;;;;;;;;;13.04;83.74512;101581;;;;-75
2022/10/25 18:08:29;;;;;;;;;;;;;;;12.97;83.91895;101589.4;;;;-76
2022/10/25 18:13:31;;;;;;;;;;;;;;;12.89;83.94922;101585.5;;;;-75
2022/10/25 18:18:29;;;;;;;;;;;;;;;12.84;84.07227;101591;;;;-75
2022/10/25 18:19:10;;;;;;;5.4;2.3;;;;;;;;;;;;;-75
2022/10/25 18:23:29;;;;;;;;;;;;;;;12.79;83.71777;101591;;;;-75
2022/10/25 18:28:29;;;;;;;;;;;;;;;12.72;83.67383;101593.6;;;;-75
2022/10/25 18:33:36;;;;;;;;;;;;;;;12.64;84.04688;101594.3;;;;-75
2022/10/25 18:38:29;;;;;;;;;;;;;;;12.59;84.21387;101592.3;;;;-76
2022/10/25 18:43:29;;;;;;;;;;;;;;;12.54;84.25;101594.6;;;;-75
2022/10/25 18:48:29;;;;;;;;;;;;;;;12.48;84.1377;101593;;;;-74
2022/10/25 18:49:12;;;;;;;6.2;3.2;;;;;;;;;;;;;-76
2022/10/25 18:53:29;;;;;;;;;;;;;;;12.44;84.43066;101592.6;;;;-75
2022/10/25 18:58:29;;;;;;;;;;;;;;;12.38;84.28516;101601.2;;;;-76
2022/10/25 19:03:29;;;;;;;;;;;;;;;12.35;84.30176;101598;;;;-76
2022/10/25 19:08:29;;;;;;;;;;;;;;;12.3;84.56934;101587.7;;;;-77
2022/10/25 19:13:29;;;;;;;;;;;;;;;12.26;84.68359;101592.1;;;;-74
2022/10/25 19:18:29;;;;;;;;;;;;;;;12.22;84.85254;101594.2;;;;-76
2022/10/25 19:19:12;;;;;;;8.9;4.1;;;;;;;;;;;;;-75
2022/10/25 19:23:29;;;;;;;;;;;;;;;12.17;85.02148;101581.3;;;;-74
2022/10/25 19:28:29;;;;;;;;;;;;;;;12.16;84.83105;101578.1;;;;-76
2022/10/25 19:33:29;;;;;;;;;;;;;;;12.11;84.84473;101579.1;;;;-75
2022/10/25 19:38:29;;;;;;;;;;;;;;;12.09;85.08496;101572.5;;;;-76
2022/10/25 19:43:29;;;;;;;;;;;;;;;12.08;85.05762;101567.9;;;;-75
2022/10/25 19:48:29;;;;;;;;;;;;;;;12.02;84.88086;101565.8;;;;-77
2022/10/25 19:49:12;;;;;;;8.6;4.6;;;;;;;;;;;;;-76
2022/10/25 19:53:29;;;;;;;;;;;;;;;12;85.17676;101562.9;;;;-75
2022/10/25 19:58:29;;;;;;;;;;;;;;;11.95;85.30078;101560.4;;;;-75
2022/10/25 20:03:29;;;;;;;;;;;;;;;11.91;85.27148;101558.9;;;;-75
2022/10/25 20:08:29;;;;;;;;;;;;;;;11.86;85.27148;101557.5;;;;-76
2022/10/25 20:13:29;;;;;;;;;;;;;;;11.8;85.32617;101555.8;;;;-74
2022/10/25 20:18:32;;;;;;;;;;;;;;;11.75;85.38379;101556.8;;;;-75
2022/10/25 20:19:15;;;;;;;10.2;5;;;;;;;;;;;;;-75
2022/10/25 20:23:30;;;;;;;;;;;;;;;11.72;85.22168;101555.1;;;;-74
2022/10/25 20:28:29;;;;;;;;;;;;;;;11.66;85.13184;101552.8;;;;-75
2022/10/25 20:33:29;;;;;;;;;;;;;;;11.64;85.38477;101553;;;;-74
2022/10/25 20:38:29;;;;;;;;;;;;;;;11.58;85.48242;101556.8;;;;-75
2022/10/25 20:43:29;;;;;;;;;;;;;;;11.54;85.28613;101551.7;;;;-75
2022/10/25 20:48:29;;;;;;;;;;;;;;;11.51;85.25879;101551.1;;;;-74
2022/10/25 20:49:14;;;;;;;9.2;4.6;;;;;;;;;;;;;-74
2022/10/25 20:53:29;;;;;;;;;;;;;;;11.49;85.59766;101548.9;;;;-74
2022/10/25 20:58:29;;;;;;;;;;;;;;;11.45;85.32324;101557.6;;;;-74
2022/10/25 21:03:30;;;;;;;;;;;;;;;11.43;85.68555;101556.8;;;;-74
2022/10/25 21:08:29;;;;;;;;;;;;;;;11.4;85.7793;101553.5;;;;-74
2022/10/25 21:13:30;;;;;;;;;;;;;;;11.38;85.59863;101552.4;;;;-75
2022/10/25 21:18:29;;;;;;;;;;;;;;;11.36;86.00293;101552.6;;;;-74
2022/10/25 21:19:15;;;;;;;9.6;4.7;;;;;;;;;;;;;-74
2022/10/25 21:23:32;;;;;;;;;;;;;;;11.32;85.66504;101550.8;;;;-75
2022/10/25 21:28:29;;;;;;;;;;;;;;;11.28;85.82227;101548.2;;;;-74
2022/10/25 21:33:29;;;;;;;;;;;;;;;11.25;85.42969;101540.6;;;;-74
2022/10/25 21:38:29;;;;;;;;;;;;;;;11.25;85.39551;101540.8;;;;-73
2022/10/25 21:43:29;;;;;;;;;;;;;;;11.21;85.52051;101536;;;;-74
2022/10/25 21:48:29;;;;;;;;;;;;;;;11.19;85.61914;101534.9;;;;-75
2022/10/25 21:49:16;;;;;;;8.1;4;;;;;;;;;;;;;-74
2022/10/25 21:53:29;;;;;;;;;;;;;;;11.15;85.62109;101531.3;;;;-73
2022/10/25 21:58:30;;;;;;;;;;;;;;;11.12;85.84766;101533.2;;;;-74
2022/10/25 22:03:31;;;;;;;;;;;;;;;11.1;86.3291;101528.8;;;;-74
2022/10/25 22:08:29;;;;;;;;;;;;;;;11.08;85.96094;101526.6;;;;-74
2022/10/25 22:13:29;;;;;;;;;;;;;;;11.05;85.76758;101537.1;;;;-75
2022/10/25 22:18:29;;;;;;;;;;;;;;;11.02;85.91699;101537.8;;;;-75
2022/10/25 22:19:20;;;;;;;7.8;3.6;;;;;;;;;;;;;-75
2022/10/25 22:23:30;;;;;;;;;;;;;;;11;85.90234;101533.1;;;;-74
2022/10/25 22:28:29;;;;;;;;;;;;;;;10.96;86.11426;101536.1;;;;-74
2022/10/25 22:33:29;;;;;;;;;;;;;;;10.92;86.07422;101534.2;;;;-74
2022/10/25 22:38:30;;;;;;;;;;;;;;;10.89;86.12402;101532.7;;;;-74
2022/10/25 22:43:29;;;;;;;;;;;;;;;10.88;86.19727;101528.8;;;;-75
2022/10/25 22:48:32;;;;;;;;;;;;;;;10.85;86.00391;101515.3;;;;-75
2022/10/25 22:49:18;;;;;;;7.2;3.7;;;;;;;;;;;;;-73
2022/10/25 22:53:29;;;;;;;;;;;;;;;10.82;86.11914;101512.9;;;;-75
2022/10/25 22:58:31;;;;;;;;;;;;;;;10.8;86.07129;101514.8;;;;-74
2022/10/25 23:03:29;;;;;;;;;;;;;;;10.75;86.50391;101513.1;;;;-74
2022/10/25 23:08:29;;;;;;;;;;;;;;;10.74;86.48047;101515;;;;-75
2022/10/25 23:13:29;;;;;;;;;;;;;;;10.71;86.40625;101512.4;;;;-75
2022/10/25 23:18:29;;;;;;;;;;;;;;;10.67;86.57617;101510.7;;;;-74
2022/10/25 23:19:19;;;;;;;7.5;3.2;;;;;;;;;;;;;-73
2022/10/25 23:23:29;;;;;;;;;;;;;;;10.63;85.93945;101509.7;;;;-75
2022/10/25 23:28:29;;;;;;;;;;;;;;;10.63;86.09375;101508.8;;;;-75
2022/10/25 23:33:29;;;;;;;;;;;;;;;10.57;86.03906;101505.5;;;;-74
2022/10/25 23:38:29;;;;;;;;;;;;;;;10.54;86.27344;101500.3;;;;-75
2022/10/25 23:43:29;;;;;;;;;;;;;;;10.5;86.22168;101498.8;;;;-74
2022/10/25 23:48:29;;;;;;;;;;;;;;;10.49;86.12109;101497.6;;;;-76
2022/10/25 23:49:20;;;;;;;5.8;2.9;;;;;;;;;;;;;-75
2022/10/25 23:53:31;;;;;;;;;;;;;;;10.49;86.30859;101493.5;;;;-75
2022/10/25 23:58:29;;;;;;;;;;;;;;;10.44;86.4541;101493.5;;;;-74
